createdAt,value
2023-08-09T00:29:34.606Z,73.12
2023-08-09T01:45:44.746Z,75.88
2023-08-09T01:48:12.919Z,76.65
2023-08-09T01:56:33.255Z,77.13
2023-08-09T01:59:06.881Z,77.32
2023-08-09T02:01:34.409Z,77.33
2023-08-09T02:04:01.772Z,77.50
2023-08-09T02:06:29.123Z,77.82
2023-08-09T02:08:56.564Z,78.43
2023-08-09T02:11:23.873Z,79.05
2023-08-09T02:13:53.627Z,79.37
2023-08-09T02:16:21.619Z,79.55
2023-08-09T02:18:49.926Z,79.78
2023-08-09T02:21:17.175Z,80.63
2023-08-09T02:23:44.522Z,80.50
2023-08-09T02:26:16.272Z,81.06
2023-08-09T02:28:43.647Z,81.30
2023-08-09T02:31:12.526Z,81.50
2023-08-09T02:33:45.332Z,81.42
2023-08-09T02:36:13.208Z,81.08
2023-08-09T02:38:40.551Z,81.36
2023-08-09T02:41:07.753Z,81.22
2023-08-09T02:43:34.976Z,81.59
2023-08-09T02:46:02.494Z,81.38
2023-08-09T02:48:29.660Z,80.85
2023-08-09T02:50:56.977Z,81.04
2023-08-09T02:53:34.151Z,80.98
2023-08-09T02:56:02.176Z,80.92
2023-08-09T02:58:32.588Z,81.33
2023-08-09T03:00:59.908Z,80.91
2023-08-09T03:03:27.355Z,82.01
2023-08-09T03:05:54.781Z,82.21
2023-08-09T03:08:22.380Z,82.17
2023-08-09T03:10:50.042Z,82.07
2023-08-09T03:13:17.987Z,82.19
2023-08-09T03:15:45.933Z,82.55
2023-08-09T03:18:14.751Z,83.21
2023-08-09T03:20:42.623Z,83.42
2023-08-09T03:23:11.661Z,82.42
2023-08-09T03:25:40.162Z,82.54
2023-08-09T03:28:08.511Z,82.01
2023-08-09T03:30:35.883Z,81.51
2023-08-09T03:33:03.500Z,81.25
2023-08-09T03:35:31.805Z,81.60
2023-08-09T03:37:59.898Z,81.26
2023-08-09T03:40:27.475Z,80.89
2023-08-09T03:42:55.718Z,81.72
2023-08-09T03:45:23.897Z,80.69
2023-08-09T03:47:53.986Z,80.28
2023-08-09T03:50:24.053Z,81.28
2023-08-09T03:52:52.143Z,81.57
2023-08-09T03:55:19.721Z,81.12
2023-08-09T03:57:46.969Z,80.40
2023-08-09T04:00:19.181Z,80.95
2023-08-09T04:02:48.387Z,81.82
2023-08-09T04:05:17.922Z,81.23
2023-08-09T04:07:45.355Z,81.03
2023-08-09T04:10:13.717Z,81.53
2023-08-09T04:12:41.250Z,81.01
2023-08-09T04:15:09.434Z,80.75
2023-08-09T04:17:38.166Z,79.99
2023-08-09T04:20:13.534Z,79.87
2023-08-09T04:22:41.269Z,80.01
2023-08-09T04:25:11.802Z,80.32
2023-08-09T04:27:43.177Z,79.57
2023-08-09T04:30:15.470Z,79.94
2023-08-09T04:32:43.365Z,79.41
2023-08-09T04:35:11.575Z,78.06
2023-08-09T04:37:39.039Z,78.69
2023-08-09T04:40:12.558Z,77.68
2023-08-09T04:42:42.348Z,77.73
2023-08-09T04:45:12.159Z,76.97
2023-08-09T04:47:39.732Z,77.40
2023-08-09T04:50:11.086Z,77.24
2023-08-09T04:52:40.040Z,78.62
2023-08-09T04:55:09.414Z,77.41
2023-08-09T05:03:09.479Z,80.26
2023-08-09T05:05:47.080Z,79.96
2023-08-09T05:08:25.035Z,80.72
2023-08-09T05:10:56.357Z,80.39
2023-08-09T05:13:24.579Z,80.86
2023-08-09T05:24:58.242Z,79.81
2023-08-09T05:41:52.298Z,76.88
2023-08-09T05:44:20.441Z,76.84
2023-08-09T05:49:30.533Z,75.98
2023-08-09T05:52:03.914Z,75.80
2023-08-09T05:54:32.361Z,75.86
2023-08-09T05:57:01.015Z,76.39
2023-08-09T06:13:11.945Z,78.24
2023-08-09T06:18:24.794Z,77.63
2023-08-09T06:21:01.545Z,77.25
2023-08-09T06:23:31.121Z,77.24
2023-08-09T07:13:25.573Z,80.58
2023-08-09T07:38:25.535Z,75.62
2023-08-09T07:46:18.487Z,75.49
2023-08-09T08:02:44.165Z,73.38
2023-08-09T08:05:14.681Z,72.19
2023-08-09T08:07:45.044Z,71.52
2023-08-09T09:06:20.464Z,68.48
2023-08-09T09:24:37.737Z,67.70
2023-08-09T10:23:30.690Z,63.80
2023-08-09T10:29:08.334Z,64.04
2023-08-09T10:34:57.077Z,63.65
2023-08-09T10:37:25.832Z,62.11
2023-08-09T10:40:13.910Z,62.21
2023-08-09T10:42:41.503Z,62.33
2023-08-09T10:45:09.917Z,61.37
2023-08-09T10:47:38.029Z,61.40
2023-08-09T10:50:16.255Z,63.66
2023-08-09T10:52:50.501Z,63.36
2023-08-09T10:55:25.963Z,62.95
2023-08-09T10:57:56.636Z,63.22
2023-08-09T11:00:25.762Z,63.40
2023-08-09T11:02:55.809Z,63.41
2023-08-09T11:05:29.090Z,63.51
2023-08-09T11:08:03.975Z,64.06
2023-08-09T11:10:36.719Z,62.06
2023-08-09T11:13:06.389Z,63.13
2023-08-09T11:15:34.840Z,62.96
2023-08-09T11:18:03.070Z,63.82
2023-08-09T11:20:31.498Z,63.78
2023-08-09T11:23:00.473Z,62.87
2023-08-09T11:25:29.588Z,61.28
2023-08-09T11:27:59.396Z,61.84
2023-08-09T11:30:31.614Z,61.34
2023-08-09T11:35:47.832Z,60.97
2023-08-09T11:38:18.223Z,60.29
2023-08-09T11:40:53.714Z,59.73
2023-08-09T11:43:23.042Z,59.21
2023-08-09T11:45:56.305Z,55.03
2023-08-09T11:48:30.903Z,54.42
2023-08-09T11:51:13.564Z,54.10
2023-08-09T11:53:42.391Z,52.63
2023-08-09T11:56:24.627Z,53.61
2023-08-09T11:58:54.143Z,54.31
2023-08-09T12:01:24.234Z,52.83
2023-08-09T12:04:06.940Z,51.85
2023-08-09T12:06:47.959Z,51.85
2023-08-09T12:12:35.355Z,54.94
2023-08-09T12:15:03.132Z,53.20
2023-08-09T12:17:33.322Z,53.03
2023-08-09T14:12:28.118Z,53.75
2023-08-09T14:15:42.590Z,51.90
2023-08-09T14:18:10.031Z,51.17
2023-08-09T14:20:40.247Z,50.88
2023-08-09T14:23:09.975Z,50.49
2023-08-09T14:25:38.182Z,50.53
2023-08-09T14:28:05.870Z,50.35
2023-08-09T14:30:33.638Z,50.71
2023-08-09T14:33:03.608Z,52.31
2023-08-09T14:35:31.928Z,52.92
2023-08-09T14:37:59.250Z,52.40
2023-08-09T14:40:26.725Z,52.22
2023-08-09T14:42:55.344Z,51.94
2023-08-09T14:45:22.752Z,52.37
2023-08-09T14:47:50.285Z,52.10
2023-08-09T14:50:17.972Z,54.16
2023-08-09T14:52:45.470Z,53.95
2023-08-09T14:55:13.135Z,52.68
2023-08-09T14:57:41.486Z,51.71
2023-08-09T15:00:11.749Z,51.12
2023-08-09T15:02:44.752Z,51.54
2023-08-09T15:05:13.058Z,51.22
2023-08-09T15:07:41.346Z,52.52
2023-08-09T15:10:08.972Z,52.03
2023-08-09T15:12:36.698Z,51.50
2023-08-09T15:15:08.444Z,51.27
2023-08-09T15:17:36.261Z,51.65
